sensor_id;sensor_type;location;lat;lon;timestamp;P1;durP1;ratioP1;P2;durP2;ratioP2
75061;SDS011;63641;46.526;24.612;2024-03-06T07:16:41;16.40;;;11.02;;
75061;SDS011;63641;46.526;24.612;2024-03-06T07:19:09;14.88;;;9.40;;
75061;SDS011;63641;46.526;24.612;2024-03-06T07:21:36;12.15;;;9.77;;
75061;SDS011;63641;46.526;24.612;2024-03-06T07:24:04;14.85;;;10.15;;
75061;SDS011;63641;46.526;24.612;2024-03-06T07:26:32;12.10;;;8.63;;
75061;SDS011;63641;46.526;24.612;2024-03-06T07:28:59;9.23;;;8.20;;
75061;SDS011;63641;46.526;24.612;2024-03-06T07:31:26;10.27;;;8.77;;
75061;SDS011;63641;46.526;24.612;2024-03-06T07:33:53;10.63;;;9.32;;
75061;SDS011;63641;46.526;24.612;2024-03-06T07:36:20;11.00;;;8.93;;
75061;SDS011;63641;46.526;24.612;2024-03-06T07:38:48;13.43;;;8.57;;
75061;SDS011;63641;46.526;24.612;2024-03-06T07:41:14;11.80;;;8.57;;
75061;SDS011;63641;46.526;24.612;2024-03-06T07:43:41;10.43;;;7.72;;
75061;SDS011;63641;46.526;24.612;2024-03-06T07:46:08;7.82;;;6.78;;
75061;SDS011;63641;46.526;24.612;2024-03-06T07:48:37;10.90;;;7.05;;
75061;SDS011;63641;46.526;24.612;2024-03-06T07:51:05;10.23;;;6.28;;
75061;SDS011;63641;46.526;24.612;2024-03-06T07:53:32;8.15;;;6.20;;
75061;SDS011;63641;46.526;24.612;2024-03-06T07:55:59;6.60;;;5.35;;
75061;SDS011;63641;46.526;24.612;2024-03-06T07:58:26;8.38;;;5.35;;
75061;SDS011;63641;46.526;24.612;2024-03-06T08:00:52;6.65;;;5.75;;
75061;SDS011;63641;46.526;24.612;2024-03-06T08:03:22;6.07;;;5.47;;
75061;SDS011;63641;46.526;24.612;2024-03-06T08:05:51;9.18;;;7.05;;
75061;SDS011;63641;46.526;24.612;2024-03-06T08:08:21;8.30;;;6.88;;
75061;SDS011;63641;46.526;24.612;2024-03-06T08:10:49;11.50;;;6.75;;
75061;SDS011;63641;46.526;24.612;2024-03-06T08:13:16;8.80;;;6.82;;
75061;SDS011;63641;46.526;24.612;2024-03-06T08:15:42;8.48;;;6.88;;
75061;SDS011;63641;46.526;24.612;2024-03-06T08:18:11;8.60;;;7.10;;
75061;SDS011;63641;46.526;24.612;2024-03-06T08:20:39;8.40;;;6.10;;
75061;SDS011;63641;46.526;24.612;2024-03-06T08:23:07;6.88;;;5.80;;
75061;SDS011;63641;46.526;24.612;2024-03-06T08:25:36;9.43;;;6.43;;
75061;SDS011;63641;46.526;24.612;2024-03-06T08:28:04;8.27;;;6.53;;
75061;SDS011;63641;46.526;24.612;2024-03-06T08:30:32;8.15;;;5.95;;
75061;SDS011;63641;46.526;24.612;2024-03-06T08:32:59;7.55;;;6.45;;
75061;SDS011;63641;46.526;24.612;2024-03-06T08:35:28;8.85;;;7.53;;
75061;SDS011;63641;46.526;24.612;2024-03-06T08:37:56;8.18;;;7.10;;
75061;SDS011;63641;46.526;24.612;2024-03-06T08:40:25;9.95;;;7.00;;
75061;SDS011;63641;46.526;24.612;2024-03-06T08:42:53;10.95;;;7.80;;
75061;SDS011;63641;46.526;24.612;2024-03-06T08:45:21;9.15;;;7.28;;
75061;SDS011;63641;46.526;24.612;2024-03-06T08:47:47;8.35;;;6.85;;
75061;SDS011;63641;46.526;24.612;2024-03-06T08:50:15;8.32;;;6.80;;
75061;SDS011;63641;46.526;24.612;2024-03-06T08:52:42;12.82;;;8.18;;
75061;SDS011;63641;46.526;24.612;2024-03-06T08:55:09;9.75;;;6.68;;
75061;SDS011;63641;46.526;24.612;2024-03-06T08:57:36;11.48;;;8.40;;
75061;SDS011;63641;46.526;24.612;2024-03-06T09:00:04;8.98;;;7.13;;
75061;SDS011;63641;46.526;24.612;2024-03-06T09:02:37;11.13;;;7.53;;
75061;SDS011;63641;46.526;24.612;2024-03-06T09:05:08;8.55;;;7.10;;
75061;SDS011;63641;46.526;24.612;2024-03-06T09:07:37;10.23;;;7.75;;
75061;SDS011;63641;46.526;24.612;2024-03-06T09:10:07;10.75;;;7.95;;
75061;SDS011;63641;46.526;24.612;2024-03-06T09:12:36;8.40;;;7.60;;
75061;SDS011;63641;46.526;24.612;2024-03-06T09:15:03;9.98;;;8.05;;
75061;SDS011;63641;46.526;24.612;2024-03-06T09:17:34;10.30;;;7.97;;
75061;SDS011;63641;46.526;24.612;2024-03-06T09:20:01;8.85;;;7.47;;
75061;SDS011;63641;46.526;24.612;2024-03-06T09:22:39;28.90;;;10.13;;
75061;SDS011;63641;46.526;24.612;2024-03-06T09:25:07;13.93;;;8.48;;
75061;SDS011;63641;46.526;24.612;2024-03-06T09:27:34;10.65;;;8.82;;
75061;SDS011;63641;46.526;24.612;2024-03-06T09:30:01;10.75;;;7.78;;
75061;SDS011;63641;46.526;24.612;2024-03-06T09:32:29;12.48;;;8.30;;
75061;SDS011;63641;46.526;24.612;2024-03-06T09:34:58;12.07;;;8.13;;
75061;SDS011;63641;46.526;24.612;2024-03-06T09:37:25;11.13;;;8.57;;
75061;SDS011;63641;46.526;24.612;2024-03-06T09:39:52;10.73;;;8.90;;
75061;SDS011;63641;46.526;24.612;2024-03-06T09:42:19;10.90;;;8.48;;
75061;SDS011;63641;46.526;24.612;2024-03-06T09:44:46;11.25;;;8.93;;
75061;SDS011;63641;46.526;24.612;2024-03-06T09:47:14;10.80;;;8.43;;
75061;SDS011;63641;46.526;24.612;2024-03-06T09:49:47;10.00;;;8.27;;
75061;SDS011;63641;46.526;24.612;2024-03-06T09:52:14;12.00;;;9.70;;
75061;SDS011;63641;46.526;24.612;2024-03-06T09:54:41;10.68;;;8.82;;
75061;SDS011;63641;46.526;24.612;2024-03-06T09:57:08;11.23;;;9.18;;
75061;SDS011;63641;46.526;24.612;2024-03-06T09:59:34;10.15;;;8.82;;
75061;SDS011;63641;46.526;24.612;2024-03-06T10:02:01;12.10;;;9.63;;
75061;SDS011;63641;46.526;24.612;2024-03-06T10:04:36;11.60;;;9.65;;
75061;SDS011;63641;46.526;24.612;2024-03-06T10:07:03;11.60;;;10.35;;
75061;SDS011;63641;46.526;24.612;2024-03-06T10:09:30;13.80;;;10.27;;
75061;SDS011;63641;46.526;24.612;2024-03-06T10:11:59;14.93;;;9.77;;
75061;SDS011;63641;46.526;24.612;2024-03-06T10:14:32;14.70;;;9.15;;
75061;SDS011;63641;46.526;24.612;2024-03-06T10:16:59;12.18;;;10.23;;
75061;SDS011;63641;46.526;24.612;2024-03-06T10:19:27;12.05;;;9.90;;
75061;SDS011;63641;46.526;24.612;2024-03-06T10:21:58;13.68;;;10.23;;
75061;SDS011;63641;46.526;24.612;2024-03-06T10:24:28;12.32;;;10.63;;
75061;SDS011;63641;46.526;24.612;2024-03-06T10:26:56;11.80;;;10.02;;
75061;SDS011;63641;46.526;24.612;2024-03-06T10:29:27;14.43;;;11.27;;
75061;SDS011;63641;46.526;24.612;2024-03-06T10:31:55;17.05;;;10.95;;
75061;SDS011;63641;46.526;24.612;2024-03-06T10:34:27;12.43;;;10.40;;
75061;SDS011;63641;46.526;24.612;2024-03-06T10:37:00;12.38;;;10.48;;
75061;SDS011;63641;46.526;24.612;2024-03-06T10:39:33;12.05;;;9.68;;
75061;SDS011;63641;46.526;24.612;2024-03-06T10:42:04;11.73;;;9.43;;
75061;SDS011;63641;46.526;24.612;2024-03-06T10:44:34;10.43;;;9.00;;
75061;SDS011;63641;46.526;24.612;2024-03-06T10:47:04;12.60;;;10.48;;
75061;SDS011;63641;46.526;24.612;2024-03-06T10:49:32;11.45;;;9.45;;
75061;SDS011;63641;46.526;24.612;2024-03-06T10:52:01;11.32;;;10.13;;
75061;SDS011;63641;46.526;24.612;2024-03-06T10:54:33;11.63;;;10.45;;
75061;SDS011;63641;46.526;24.612;2024-03-06T10:57:01;10.48;;;9.38;;
75061;SDS011;63641;46.526;24.612;2024-03-06T10:59:29;11.15;;;9.02;;
75061;SDS011;63641;46.526;24.612;2024-03-06T11:01:57;12.70;;;10.60;;
75061;SDS011;63641;46.526;24.612;2024-03-06T11:04:29;12.27;;;9.73;;
75061;SDS011;63641;46.526;24.612;2024-03-06T11:07:01;11.32;;;10.20;;
75061;SDS011;63641;46.526;24.612;2024-03-06T11:09:33;15.30;;;10.25;;
75061;SDS011;63641;46.526;24.612;2024-03-06T11:12:10;12.80;;;10.27;;
75061;SDS011;63641;46.526;24.612;2024-03-06T11:14:38;13.23;;;10.60;;
75061;SDS011;63641;46.526;24.612;2024-03-06T11:17:08;12.10;;;10.05;;
75061;SDS011;63641;46.526;24.612;2024-03-06T11:28:16;12.05;;;9.90;;
75061;SDS011;63641;46.526;24.612;2024-03-06T11:30:45;11.75;;;9.82;;
75061;SDS011;63641;46.526;24.612;2024-03-06T11:33:16;13.05;;;9.98;;
75061;SDS011;63641;46.526;24.612;2024-03-06T11:41:55;6.45;;;5.70;;
75061;SDS011;63641;46.526;24.612;2024-03-06T11:44:19;9.18;;;7.18;;
75061;SDS011;63641;46.526;24.612;2024-03-06T11:46:48;7.95;;;7.05;;
75061;SDS011;63641;46.526;24.612;2024-03-06T11:49:26;6.97;;;6.28;;
75061;SDS011;63641;46.526;24.612;2024-03-06T11:52:05;7.47;;;5.05;;
75061;SDS011;63641;46.526;24.612;2024-03-06T11:54:34;7.57;;;5.35;;
75061;SDS011;63641;46.526;24.612;2024-03-06T11:57:02;6.43;;;5.50;;
75061;SDS011;63641;46.526;24.612;2024-03-06T11:59:34;8.75;;;6.07;;
75061;SDS011;63641;46.526;24.612;2024-03-06T12:02:06;7.70;;;6.55;;
75061;SDS011;63641;46.526;24.612;2024-03-06T12:04:35;8.20;;;6.55;;
75061;SDS011;63641;46.526;24.612;2024-03-06T12:07:06;7.15;;;6.03;;
75061;SDS011;63641;46.526;24.612;2024-03-06T12:09:35;6.45;;;5.82;;
75061;SDS011;63641;46.526;24.612;2024-03-06T12:12:08;5.82;;;4.72;;
75061;SDS011;63641;46.526;24.612;2024-03-06T12:14:37;7.38;;;5.47;;
75061;SDS011;63641;46.526;24.612;2024-03-06T12:17:10;9.00;;;5.60;;
75061;SDS011;63641;46.526;24.612;2024-03-06T12:19:39;6.40;;;4.85;;
75061;SDS011;63641;46.526;24.612;2024-03-06T12:22:10;6.88;;;5.15;;
75061;SDS011;63641;46.526;24.612;2024-03-06T12:24:38;5.57;;;5.03;;
75061;SDS011;63641;46.526;24.612;2024-03-06T12:27:06;6.68;;;4.80;;
75061;SDS011;63641;46.526;24.612;2024-03-06T12:29:34;4.88;;;4.32;;
75061;SDS011;63641;46.526;24.612;2024-03-06T12:32:02;4.93;;;4.32;;
75061;SDS011;63641;46.526;24.612;2024-03-06T12:34:29;5.30;;;4.03;;
75061;SDS011;63641;46.526;24.612;2024-03-06T12:37:08;5.18;;;4.40;;
75061;SDS011;63641;46.526;24.612;2024-03-06T12:39:37;4.78;;;4.13;;
75061;SDS011;63641;46.526;24.612;2024-03-06T12:42:09;6.57;;;4.43;;
75061;SDS011;63641;46.526;24.612;2024-03-06T12:44:36;6.50;;;4.38;;
75061;SDS011;63641;46.526;24.612;2024-03-06T12:47:02;7.45;;;4.32;;
75061;SDS011;63641;46.526;24.612;2024-03-06T12:49:29;5.47;;;4.47;;
75061;SDS011;63641;46.526;24.612;2024-03-06T12:51:56;6.97;;;5.07;;
75061;SDS011;63641;46.526;24.612;2024-03-06T12:54:28;7.30;;;4.93;;
75061;SDS011;63641;46.526;24.612;2024-03-06T12:56:54;5.70;;;4.68;;
75061;SDS011;63641;46.526;24.612;2024-03-06T12:59:23;5.88;;;4.03;;
75061;SDS011;63641;46.526;24.612;2024-03-06T13:01:50;5.15;;;4.43;;
75061;SDS011;63641;46.526;24.612;2024-03-06T13:04:17;5.82;;;4.40;;
75061;SDS011;63641;46.526;24.612;2024-03-06T13:06:44;5.05;;;4.15;;
75061;SDS011;63641;46.526;24.612;2024-03-06T13:09:12;5.70;;;3.92;;
75061;SDS011;63641;46.526;24.612;2024-03-06T13:11:39;4.28;;;3.88;;
75061;SDS011;63641;46.526;24.612;2024-03-06T13:14:08;5.80;;;4.25;;
75061;SDS011;63641;46.526;24.612;2024-03-06T13:16:39;4.10;;;3.70;;
75061;SDS011;63641;46.526;24.612;2024-03-06T13:19:06;4.97;;;4.03;;
75061;SDS011;63641;46.526;24.612;2024-03-06T13:21:34;5.13;;;4.10;;
75061;SDS011;63641;46.526;24.612;2024-03-06T13:24:01;6.85;;;4.28;;
75061;SDS011;63641;46.526;24.612;2024-03-06T13:26:29;6.68;;;4.57;;
75061;SDS011;63641;46.526;24.612;2024-03-06T13:28:56;5.93;;;4.38;;
75061;SDS011;63641;46.526;24.612;2024-03-06T13:31:23;5.32;;;4.32;;
75061;SDS011;63641;46.526;24.612;2024-03-06T13:33:50;5.00;;;3.90;;
75061;SDS011;63641;46.526;24.612;2024-03-06T13:36:17;7.25;;;4.78;;
75061;SDS011;63641;46.526;24.612;2024-03-06T13:38:43;7.70;;;4.53;;
75061;SDS011;63641;46.526;24.612;2024-03-06T13:41:11;5.70;;;4.95;;
75061;SDS011;63641;46.526;24.612;2024-03-06T13:43:37;6.68;;;5.25;;
75061;SDS011;63641;46.526;24.612;2024-03-06T13:46:04;6.45;;;4.88;;
75061;SDS011;63641;46.526;24.612;2024-03-06T13:48:31;7.45;;;5.10;;
75061;SDS011;63641;46.526;24.612;2024-03-06T13:50:58;5.82;;;4.93;;
75061;SDS011;63641;46.526;24.612;2024-03-06T13:53:25;8.18;;;6.13;;
75061;SDS011;63641;46.526;24.612;2024-03-06T13:55:52;6.75;;;5.57;;
75061;SDS011;63641;46.526;24.612;2024-03-06T13:58:19;6.03;;;5.22;;
75061;SDS011;63641;46.526;24.612;2024-03-06T14:00:46;6.47;;;4.75;;
75061;SDS011;63641;46.526;24.612;2024-03-06T14:03:12;6.97;;;5.25;;
75061;SDS011;63641;46.526;24.612;2024-03-06T14:05:39;8.18;;;5.57;;
75061;SDS011;63641;46.526;24.612;2024-03-06T14:08:06;6.28;;;5.45;;
75061;SDS011;63641;46.526;24.612;2024-03-06T14:10:34;6.50;;;5.05;;
75061;SDS011;63641;46.526;24.612;2024-03-06T14:13:01;6.28;;;4.75;;
75061;SDS011;63641;46.526;24.612;2024-03-06T14:15:28;6.03;;;4.88;;
75061;SDS011;63641;46.526;24.612;2024-03-06T14:17:56;5.63;;;4.97;;
75061;SDS011;63641;46.526;24.612;2024-03-06T14:20:23;9.55;;;5.95;;
75061;SDS011;63641;46.526;24.612;2024-03-06T14:22:50;5.82;;;5.00;;
75061;SDS011;63641;46.526;24.612;2024-03-06T14:25:17;8.85;;;5.40;;
75061;SDS011;63641;46.526;24.612;2024-03-06T14:27:44;7.78;;;6.22;;
75061;SDS011;63641;46.526;24.612;2024-03-06T14:30:12;6.22;;;5.38;;
75061;SDS011;63641;46.526;24.612;2024-03-06T14:32:41;6.65;;;4.90;;
75061;SDS011;63641;46.526;24.612;2024-03-06T14:35:08;6.38;;;4.90;;
75061;SDS011;63641;46.526;24.612;2024-03-06T14:37:35;8.63;;;4.80;;
75061;SDS011;63641;46.526;24.612;2024-03-06T14:40:05;5.57;;;5.07;;
75061;SDS011;63641;46.526;24.612;2024-03-06T14:42:35;6.35;;;4.72;;
75061;SDS011;63641;46.526;24.612;2024-03-06T14:45:02;5.32;;;4.82;;
75061;SDS011;63641;46.526;24.612;2024-03-06T14:47:32;7.57;;;5.13;;
75061;SDS011;63641;46.526;24.612;2024-03-06T14:49:59;6.43;;;4.60;;
75061;SDS011;63641;46.526;24.612;2024-03-06T14:52:27;6.45;;;5.03;;
75061;SDS011;63641;46.526;24.612;2024-03-06T14:54:54;5.32;;;4.47;;
75061;SDS011;63641;46.526;24.612;2024-03-06T14:57:21;5.60;;;4.35;;
75061;SDS011;63641;46.526;24.612;2024-03-06T14:59:50;6.85;;;4.75;;
75061;SDS011;63641;46.526;24.612;2024-03-06T15:02:19;6.85;;;5.53;;
75061;SDS011;63641;46.526;24.612;2024-03-06T15:04:46;5.22;;;4.72;;
75061;SDS011;63641;46.526;24.612;2024-03-06T15:07:14;5.40;;;4.80;;
75061;SDS011;63641;46.526;24.612;2024-03-06T15:09:41;8.90;;;5.75;;
75061;SDS011;63641;46.526;24.612;2024-03-06T15:12:07;6.13;;;5.53;;
75061;SDS011;63641;46.526;24.612;2024-03-06T15:14:35;6.90;;;5.97;;
75061;SDS011;63641;46.526;24.612;2024-03-06T15:17:11;6.28;;;5.65;;
75061;SDS011;63641;46.526;24.612;2024-03-06T15:19:39;9.30;;;6.07;;
75061;SDS011;63641;46.526;24.612;2024-03-06T15:22:07;8.57;;;6.28;;
75061;SDS011;63641;46.526;24.612;2024-03-06T15:24:34;7.50;;;6.78;;
75061;SDS011;63641;46.526;24.612;2024-03-06T15:27:01;9.40;;;6.13;;
75061;SDS011;63641;46.526;24.612;2024-03-06T15:29:28;8.30;;;6.03;;
75061;SDS011;63641;46.526;24.612;2024-03-06T15:31:55;8.85;;;5.97;;
75061;SDS011;63641;46.526;24.612;2024-03-06T15:34:21;12.07;;;8.07;;
75061;SDS011;63641;46.526;24.612;2024-03-06T15:36:48;9.13;;;7.25;;
75061;SDS011;63641;46.526;24.612;2024-03-06T15:39:15;8.00;;;7.20;;
75061;SDS011;63641;46.526;24.612;2024-03-06T15:41:42;7.93;;;7.05;;
75061;SDS011;63641;46.526;24.612;2024-03-06T15:44:09;8.00;;;7.00;;
75061;SDS011;63641;46.526;24.612;2024-03-06T15:46:37;9.02;;;7.85;;
75061;SDS011;63641;46.526;24.612;2024-03-06T15:49:18;9.50;;;7.85;;
75061;SDS011;63641;46.526;24.612;2024-03-06T15:51:47;8.07;;;7.20;;
75061;SDS011;63641;46.526;24.612;2024-03-06T15:54:13;9.25;;;7.65;;
75061;SDS011;63641;46.526;24.612;2024-03-06T15:56:41;8.52;;;7.63;;
75061;SDS011;63641;46.526;24.612;2024-03-06T15:59:08;10.15;;;8.23;;
75061;SDS011;63641;46.526;24.612;2024-03-06T16:01:35;10.68;;;8.10;;
75061;SDS011;63641;46.526;24.612;2024-03-06T16:04:02;9.35;;;7.32;;
75061;SDS011;63641;46.526;24.612;2024-03-06T16:06:30;9.25;;;8.20;;
75061;SDS011;63641;46.526;24.612;2024-03-06T16:09:06;11.63;;;9.15;;
75061;SDS011;63641;46.526;24.612;2024-03-06T16:11:36;12.70;;;8.95;;
75061;SDS011;63641;46.526;24.612;2024-03-06T16:14:03;11.52;;;8.82;;
75061;SDS011;63641;46.526;24.612;2024-03-06T16:16:30;10.30;;;9.20;;
75061;SDS011;63641;46.526;24.612;2024-03-06T16:18:58;11.75;;;9.70;;
75061;SDS011;63641;46.526;24.612;2024-03-06T16:21:25;11.90;;;9.00;;
75061;SDS011;63641;46.526;24.612;2024-03-06T16:23:52;10.40;;;8.75;;
75061;SDS011;63641;46.526;24.612;2024-03-06T16:26:20;10.40;;;8.25;;
75061;SDS011;63641;46.526;24.612;2024-03-06T16:28:47;10.32;;;7.95;;
75061;SDS011;63641;46.526;24.612;2024-03-06T16:31:13;12.05;;;7.53;;
75061;SDS011;63641;46.526;24.612;2024-03-06T16:33:40;10.88;;;8.80;;
75061;SDS011;63641;46.526;24.612;2024-03-06T16:36:07;10.95;;;9.48;;
75061;SDS011;63641;46.526;24.612;2024-03-06T16:38:35;12.95;;;9.52;;
75061;SDS011;63641;46.526;24.612;2024-03-06T16:41:02;12.15;;;9.98;;
75061;SDS011;63641;46.526;24.612;2024-03-06T16:43:30;13.23;;;11.55;;
75061;SDS011;63641;46.526;24.612;2024-03-06T16:45:57;13.23;;;10.95;;
75061;SDS011;63641;46.526;24.612;2024-03-06T16:48:24;14.68;;;11.90;;
75061;SDS011;63641;46.526;24.612;2024-03-06T16:50:51;18.20;;;14.20;;
75061;SDS011;63641;46.526;24.612;2024-03-06T16:53:18;17.25;;;15.10;;
75061;SDS011;63641;46.526;24.612;2024-03-06T16:55:46;17.08;;;15.10;;
75061;SDS011;63641;46.526;24.612;2024-03-06T16:58:13;18.02;;;15.45;;
75061;SDS011;63641;46.526;24.612;2024-03-06T17:00:39;19.00;;;14.90;;
75061;SDS011;63641;46.526;24.612;2024-03-06T17:03:07;16.77;;;14.30;;
75061;SDS011;63641;46.526;24.612;2024-03-06T17:05:34;19.20;;;15.48;;
75061;SDS011;63641;46.526;24.612;2024-03-06T17:08:01;20.67;;;14.75;;
75061;SDS011;63641;46.526;24.612;2024-03-06T17:10:29;19.27;;;14.95;;
75061;SDS011;63641;46.526;24.612;2024-03-06T17:12:57;19.77;;;15.65;;
75061;SDS011;63641;46.526;24.612;2024-03-06T17:15:24;19.27;;;14.40;;
75061;SDS011;63641;46.526;24.612;2024-03-06T17:17:51;18.05;;;14.77;;
75061;SDS011;63641;46.526;24.612;2024-03-06T17:20:18;18.20;;;15.68;;
75061;SDS011;63641;46.526;24.612;2024-03-06T17:22:45;19.10;;;16.65;;
75061;SDS011;63641;46.526;24.612;2024-03-06T17:25:12;20.50;;;16.75;;
75061;SDS011;63641;46.526;24.612;2024-03-06T17:27:40;19.08;;;16.17;;
75061;SDS011;63641;46.526;24.612;2024-03-06T17:30:06;21.30;;;16.63;;
75061;SDS011;63641;46.526;24.612;2024-03-06T17:32:34;20.75;;;17.58;;
75061;SDS011;63641;46.526;24.612;2024-03-06T17:35:02;26.65;;;21.25;;
75061;SDS011;63641;46.526;24.612;2024-03-06T17:37:30;18.00;;;15.77;;
75061;SDS011;63641;46.526;24.612;2024-03-06T17:39:56;20.70;;;16.35;;
75061;SDS011;63641;46.526;24.612;2024-03-06T17:42:23;20.83;;;16.33;;
75061;SDS011;63641;46.526;24.612;2024-03-06T17:44:51;18.98;;;15.95;;
75061;SDS011;63641;46.526;24.612;2024-03-06T17:47:18;20.25;;;17.30;;
75061;SDS011;63641;46.526;24.612;2024-03-06T17:49:45;21.63;;;17.35;;
75061;SDS011;63641;46.526;24.612;2024-03-06T17:52:12;21.45;;;17.38;;
75061;SDS011;63641;46.526;24.612;2024-03-06T17:54:38;20.42;;;17.35;;
75061;SDS011;63641;46.526;24.612;2024-03-06T17:57:05;23.40;;;18.88;;
75061;SDS011;63641;46.526;24.612;2024-03-06T17:59:32;22.85;;;18.60;;
75061;SDS011;63641;46.526;24.612;2024-03-06T18:01:59;36.67;;;19.33;;
75061;SDS011;63641;46.526;24.612;2024-03-06T18:04:30;19.80;;;16.98;;
75061;SDS011;63641;46.526;24.612;2024-03-06T18:06:57;20.60;;;17.25;;
75061;SDS011;63641;46.526;24.612;2024-03-06T18:09:24;24.65;;;19.67;;
75061;SDS011;63641;46.526;24.612;2024-03-06T18:11:51;22.70;;;17.70;;
75061;SDS011;63641;46.526;24.612;2024-03-06T18:14:18;24.48;;;17.73;;
75061;SDS011;63641;46.526;24.612;2024-03-06T18:16:45;18.70;;;16.70;;
75061;SDS011;63641;46.526;24.612;2024-03-06T18:19:12;16.75;;;14.50;;
75061;SDS011;63641;46.526;24.612;2024-03-06T18:21:42;18.05;;;15.38;;
75061;SDS011;63641;46.526;24.612;2024-03-06T18:26:41;14.40;;;12.80;;
75061;SDS011;63641;46.526;24.612;2024-03-06T18:29:07;19.23;;;13.85;;
75061;SDS011;63641;46.526;24.612;2024-03-06T18:31:35;16.25;;;12.50;;
75061;SDS011;63641;46.526;24.612;2024-03-06T18:34:02;15.73;;;11.85;;
75061;SDS011;63641;46.526;24.612;2024-03-06T18:36:29;13.18;;;11.18;;
75061;SDS011;63641;46.526;24.612;2024-03-06T18:38:56;16.00;;;13.15;;
75061;SDS011;63641;46.526;24.612;2024-03-06T18:41:24;13.52;;;12.02;;
75061;SDS011;63641;46.526;24.612;2024-03-06T18:43:50;14.93;;;12.52;;
75061;SDS011;63641;46.526;24.612;2024-03-06T18:46:17;15.40;;;13.27;;
75061;SDS011;63641;46.526;24.612;2024-03-06T18:48:44;13.32;;;11.93;;
75061;SDS011;63641;46.526;24.612;2024-03-06T18:51:11;13.98;;;11.27;;
75061;SDS011;63641;46.526;24.612;2024-03-06T18:53:37;10.50;;;9.38;;
75061;SDS011;63641;46.526;24.612;2024-03-06T18:56:05;11.48;;;8.85;;
75061;SDS011;63641;46.526;24.612;2024-03-06T18:58:32;10.20;;;9.20;;
75061;SDS011;63641;46.526;24.612;2024-03-06T19:00:59;17.95;;;12.80;;
75061;SDS011;63641;46.526;24.612;2024-03-06T19:03:26;23.40;;;14.60;;
75061;SDS011;63641;46.526;24.612;2024-03-06T19:05:53;18.50;;;13.55;;
75061;SDS011;63641;46.526;24.612;2024-03-06T19:08:21;18.52;;;13.88;;
75061;SDS011;63641;46.526;24.612;2024-03-06T19:10:47;13.50;;;10.80;;
75061;SDS011;63641;46.526;24.612;2024-03-06T19:13:14;10.35;;;8.43;;
75061;SDS011;63641;46.526;24.612;2024-03-06T19:15:41;10.32;;;8.23;;
75061;SDS011;63641;46.526;24.612;2024-03-06T19:18:08;8.50;;;7.60;;
75061;SDS011;63641;46.526;24.612;2024-03-06T19:20:36;9.70;;;8.27;;
75061;SDS011;63641;46.526;24.612;2024-03-06T19:23:06;10.73;;;7.40;;
75061;SDS011;63641;46.526;24.612;2024-03-06T19:25:33;35.03;;;21.95;;
75061;SDS011;63641;46.526;24.612;2024-03-06T19:28:00;28.52;;;18.83;;
75061;SDS011;63641;46.526;24.612;2024-03-06T19:30:29;32.60;;;20.50;;
75061;SDS011;63641;46.526;24.612;2024-03-06T19:32:56;30.65;;;20.75;;
75061;SDS011;63641;46.526;24.612;2024-03-06T19:35:23;42.75;;;28.08;;
75061;SDS011;63641;46.526;24.612;2024-03-06T19:37:52;63.10;;;33.45;;
75061;SDS011;63641;46.526;24.612;2024-03-06T19:40:21;21.48;;;14.10;;
75061;SDS011;63641;46.526;24.612;2024-03-06T19:42:48;13.95;;;11.85;;
75061;SDS011;63641;46.526;24.612;2024-03-06T19:45:16;24.13;;;16.52;;
75061;SDS011;63641;46.526;24.612;2024-03-06T19:47:42;17.25;;;11.88;;
75061;SDS011;63641;46.526;24.612;2024-03-06T19:50:09;27.20;;;17.60;;
75061;SDS011;63641;46.526;24.612;2024-03-06T19:52:36;20.63;;;13.80;;
75061;SDS011;63641;46.526;24.612;2024-03-06T19:55:04;15.18;;;11.98;;
75061;SDS011;63641;46.526;24.612;2024-03-06T19:57:32;11.50;;;10.10;;
75061;SDS011;63641;46.526;24.612;2024-03-06T20:00:00;15.35;;;10.48;;
75061;SDS011;63641;46.526;24.612;2024-03-06T20:02:37;23.60;;;14.07;;
75061;SDS011;63641;46.526;24.612;2024-03-06T20:05:05;17.40;;;12.52;;
75061;SDS011;63641;46.526;24.612;2024-03-06T20:07:33;16.48;;;11.73;;
75061;SDS011;63641;46.526;24.612;2024-03-06T20:10:00;16.42;;;11.68;;
75061;SDS011;63641;46.526;24.612;2024-03-06T20:12:28;13.55;;;11.13;;
75061;SDS011;63641;46.526;24.612;2024-03-06T20:14:54;16.35;;;12.60;;
75061;SDS011;63641;46.526;24.612;2024-03-06T20:17:21;15.20;;;12.30;;
75061;SDS011;63641;46.526;24.612;2024-03-06T20:19:48;16.38;;;11.43;;
75061;SDS011;63641;46.526;24.612;2024-03-06T20:22:17;13.07;;;10.70;;
75061;SDS011;63641;46.526;24.612;2024-03-06T20:24:44;15.38;;;11.27;;
75061;SDS011;63641;46.526;24.612;2024-03-06T20:27:11;14.38;;;11.38;;
75061;SDS011;63641;46.526;24.612;2024-03-06T20:29:38;15.27;;;10.85;;
75061;SDS011;63641;46.526;24.612;2024-03-06T20:32:05;15.45;;;11.75;;
75061;SDS011;63641;46.526;24.612;2024-03-06T20:34:36;13.43;;;11.02;;
75061;SDS011;63641;46.526;24.612;2024-03-06T20:37:03;16.58;;;12.95;;
75061;SDS011;63641;46.526;24.612;2024-03-06T20:39:31;15.73;;;11.75;;
75061;SDS011;63641;46.526;24.612;2024-03-06T20:41:59;15.57;;;12.85;;
75061;SDS011;63641;46.526;24.612;2024-03-06T20:44:26;17.42;;;11.93;;
75061;SDS011;63641;46.526;24.612;2024-03-06T20:46:53;15.07;;;11.73;;
75061;SDS011;63641;46.526;24.612;2024-03-06T20:49:20;15.00;;;11.70;;
75061;SDS011;63641;46.526;24.612;2024-03-06T20:51:48;17.38;;;12.13;;
75061;SDS011;63641;46.526;24.612;2024-03-06T20:54:15;17.38;;;12.85;;
75061;SDS011;63641;46.526;24.612;2024-03-06T20:56:43;20.90;;;12.20;;
75061;SDS011;63641;46.526;24.612;2024-03-06T20:59:10;15.10;;;11.90;;
75061;SDS011;63641;46.526;24.612;2024-03-06T21:01:40;16.63;;;12.57;;
75061;SDS011;63641;46.526;24.612;2024-03-06T21:04:09;17.90;;;13.07;;
75061;SDS011;63641;46.526;24.612;2024-03-06T21:06:40;15.68;;;11.63;;
75061;SDS011;63641;46.526;24.612;2024-03-06T21:09:08;16.08;;;11.73;;
75061;SDS011;63641;46.526;24.612;2024-03-06T21:11:35;17.75;;;12.65;;
75061;SDS011;63641;46.526;24.612;2024-03-06T21:14:02;20.33;;;13.93;;
75061;SDS011;63641;46.526;24.612;2024-03-06T21:16:32;19.45;;;13.93;;
75061;SDS011;63641;46.526;24.612;2024-03-06T21:18:59;21.02;;;13.30;;
75061;SDS011;63641;46.526;24.612;2024-03-06T21:21:25;19.50;;;13.35;;
75061;SDS011;63641;46.526;24.612;2024-03-06T21:23:52;21.63;;;13.65;;
75061;SDS011;63641;46.526;24.612;2024-03-06T21:26:19;18.65;;;13.75;;
75061;SDS011;63641;46.526;24.612;2024-03-06T21:28:46;19.20;;;13.57;;
75061;SDS011;63641;46.526;24.612;2024-03-06T21:31:13;19.08;;;13.93;;
75061;SDS011;63641;46.526;24.612;2024-03-06T21:33:40;17.48;;;14.32;;
75061;SDS011;63641;46.526;24.612;2024-03-06T21:36:07;17.20;;;12.90;;
75061;SDS011;63641;46.526;24.612;2024-03-06T21:38:34;19.02;;;13.85;;
75061;SDS011;63641;46.526;24.612;2024-03-06T21:41:01;19.40;;;12.93;;
75061;SDS011;63641;46.526;24.612;2024-03-06T21:43:29;17.95;;;12.93;;
75061;SDS011;63641;46.526;24.612;2024-03-06T21:46:00;18.50;;;12.73;;
75061;SDS011;63641;46.526;24.612;2024-03-06T21:48:27;23.42;;;14.55;;
75061;SDS011;63641;46.526;24.612;2024-03-06T21:50:54;18.45;;;14.15;;
75061;SDS011;63641;46.526;24.612;2024-03-06T21:53:21;16.67;;;13.40;;
75061;SDS011;63641;46.526;24.612;2024-03-06T21:55:48;17.88;;;13.38;;
75061;SDS011;63641;46.526;24.612;2024-03-06T21:58:15;17.27;;;13.75;;